createdAt,value
2022-09-26T00:01:34.152Z,100369.77
2022-09-26T00:04:22.653Z,100366.23
2022-09-26T00:06:52.422Z,100362.72
2022-09-26T00:09:20.563Z,100356.91
2022-09-26T00:11:47.513Z,100358.33
2022-09-26T00:14:22.822Z,100359.54
2022-09-26T00:16:49.893Z,100358.46
2022-09-26T00:19:17.966Z,100361.80
2022-09-26T00:21:45.190Z,100364.80
2022-09-26T00:24:14.056Z,100361.98
2022-09-26T00:26:41.212Z,100359.33
2022-09-26T00:29:11.642Z,100357.75
2022-09-26T00:31:44.157Z,100361.08
2022-09-26T00:34:18.282Z,100360.90
2022-09-26T00:36:45.056Z,100362.66
2022-09-26T00:39:15.928Z,100360.87
2022-09-26T00:41:43.620Z,100356.64
2022-09-26T00:44:50.635Z,100349.84
2022-09-26T00:47:37.293Z,100353.02
2022-09-26T00:50:30.749Z,100354.74
2022-09-26T00:53:22.065Z,100354.52
2022-09-26T00:55:56.205Z,100353.48
2022-09-26T00:58:32.476Z,100349.75
2022-09-26T01:01:01.038Z,100349.39
2022-09-26T01:03:31.875Z,100344.80
2022-09-26T01:06:00.869Z,100337.56
2022-09-26T01:08:41.888Z,100338.42
2022-09-26T01:11:14.799Z,100334.34
2022-09-26T01:13:44.777Z,100332.09
2022-09-26T01:16:11.759Z,100326.71
2022-09-26T01:18:39.464Z,100323.39
2022-09-26T01:21:43.656Z,100320.23
2022-09-26T01:24:48.342Z,100313.74
2022-09-26T01:27:44.649Z,100312.52
2022-09-26T01:30:21.370Z,100309.48
2022-09-26T01:33:41.047Z,100313.39
2022-09-26T01:36:29.051Z,100307.61
2022-09-26T01:39:23.566Z,100299.70
2022-09-26T01:42:28.527Z,100297.22
2022-09-26T01:45:22.264Z,100299.83
2022-09-26T01:48:18.500Z,100297.65
2022-09-26T01:50:56.681Z,100302.89
2022-09-26T01:53:33.929Z,100303.95
2022-09-26T01:56:14.572Z,100297.96
2022-09-26T01:58:58.749Z,100298.45
2022-09-26T02:01:31.390Z,100296.73
2022-09-26T02:04:08.524Z,100292.37
2022-09-26T02:06:50.803Z,100295.51
2022-09-26T02:09:36.400Z,100291.61
2022-09-26T02:12:12.539Z,100287.39
2022-09-26T02:14:43.292Z,100285.84
2022-09-26T02:17:16.845Z,100282.32
2022-09-26T02:20:06.596Z,100268.77
2022-09-26T02:22:35.270Z,100264.36
2022-09-26T02:25:04.900Z,100265.20
2022-09-26T02:27:31.973Z,100262.73
2022-09-26T02:29:59.115Z,100261.68
2022-09-26T02:32:32.296Z,100260.27
2022-09-26T02:35:00.729Z,100255.75
2022-09-26T02:37:30.982Z,100253.14
2022-09-26T02:39:58.044Z,100251.21
2022-09-26T02:42:33.576Z,100253.66
2022-09-26T02:45:20.291Z,100255.06
2022-09-26T02:48:08.148Z,100253.10
2022-09-26T02:51:06.250Z,100248.56
2022-09-26T02:53:57.388Z,100245.78
2022-09-26T02:56:46.106Z,100241.04
2022-09-26T02:59:45.676Z,100238.92
2022-09-26T03:02:30.561Z,100237.20
2022-09-26T03:05:23.436Z,100237.83
2022-09-26T03:08:09.524Z,100234.11
2022-09-26T03:10:38.686Z,100234.98
2022-09-26T03:13:13.346Z,100234.81
2022-09-26T03:15:48.675Z,100231.79
2022-09-26T03:18:22.052Z,100234.57
2022-09-26T03:20:49.014Z,100237.27
2022-09-26T03:23:16.410Z,100235.88
2022-09-26T03:25:44.627Z,100235.52
2022-09-26T03:28:12.335Z,100231.15
2022-09-26T03:30:39.773Z,100224.50
2022-09-26T03:33:06.542Z,100221.73
2022-09-26T03:35:33.199Z,100225.34
2022-09-26T03:37:59.852Z,100231.84
2022-09-26T03:40:26.678Z,100228.35
2022-09-26T03:42:53.324Z,100222.06
2022-09-26T03:45:21.140Z,100220.45
2022-09-26T03:47:48.079Z,100215.00
2022-09-26T03:50:15.112Z,100206.77
2022-09-26T03:52:41.772Z,100200.98
2022-09-26T03:55:08.583Z,100201.87
2022-09-26T03:57:35.290Z,100203.23
2022-09-26T04:00:02.539Z,100207.92
2022-09-26T04:02:29.244Z,100206.55
2022-09-26T04:04:55.953Z,100205.06
2022-09-26T04:07:22.941Z,100205.30
2022-09-26T04:09:49.837Z,100200.50
2022-09-26T04:12:17.399Z,100199.04
2022-09-26T04:14:44.007Z,100199.64
2022-09-26T04:17:11.175Z,100192.24
2022-09-26T04:19:39.012Z,100190.27
2022-09-26T04:22:08.294Z,100184.51
2022-09-26T04:24:34.951Z,100187.14
2022-09-26T04:27:02.066Z,100181.80
2022-09-26T04:29:29.189Z,100178.25
2022-09-26T04:31:55.984Z,100175.63
2022-09-26T04:34:27.238Z,100184.10
2022-09-26T04:36:54.701Z,100183.24
2022-09-26T04:39:21.471Z,100185.35
2022-09-26T04:41:48.120Z,100189.30
2022-09-26T04:44:15.270Z,100190.54
2022-09-26T04:46:42.119Z,100188.15
2022-09-26T04:49:09.296Z,100185.77
2022-09-26T04:51:37.118Z,100182.45
2022-09-26T04:54:03.971Z,100175.95
2022-09-26T04:56:31.991Z,100169.55
2022-09-26T04:58:59.607Z,100168.64
2022-09-26T05:01:27.648Z,100169.57
2022-09-26T05:03:55.760Z,100174.52
2022-09-26T05:06:22.590Z,100176.96
2022-09-26T05:08:49.969Z,100175.55
2022-09-26T05:11:19.737Z,100176.61
2022-09-26T05:13:49.141Z,100169.81
2022-09-26T05:16:19.951Z,100167.02
2022-09-26T05:18:54.741Z,100164.57
2022-09-26T05:21:21.433Z,100164.57
2022-09-26T05:24:06.950Z,100168.05
2022-09-26T05:26:47.241Z,100170.05
2022-09-26T05:29:14.856Z,100166.77
2022-09-26T05:31:43.591Z,100162.13
2022-09-26T05:34:18.537Z,100159.23
2022-09-26T05:36:46.163Z,100161.23
2022-09-26T05:39:31.587Z,100162.90
2022-09-26T05:41:59.478Z,100165.25
2022-09-26T05:44:27.254Z,100166.36
2022-09-26T05:46:54.203Z,100164.80
2022-09-26T05:49:20.932Z,100168.70
2022-09-26T05:51:47.569Z,100165.58
2022-09-26T05:54:14.513Z,100165.19
2022-09-26T05:56:41.146Z,100167.48
2022-09-26T05:59:08.253Z,100164.19
2022-09-26T06:01:35.746Z,100162.61
2022-09-26T06:04:03.090Z,100161.22
2022-09-26T06:06:30.383Z,100161.27
2022-09-26T06:08:57.570Z,100160.44
2022-09-26T06:11:27.951Z,100161.22
2022-09-26T06:13:55.860Z,100160.84
2022-09-26T06:16:22.605Z,100158.92
2022-09-26T06:18:55.741Z,100158.42
2022-09-26T06:21:23.800Z,100160.58
2022-09-26T06:23:50.693Z,100157.33
2022-09-26T06:26:23.922Z,100157.38
2022-09-26T06:29:00.308Z,100156.40
2022-09-26T06:31:28.333Z,100151.67
2022-09-26T06:33:55.858Z,100145.13
2022-09-26T06:36:24.619Z,100145.64
2022-09-26T06:38:54.236Z,100140.59
2022-09-26T06:41:20.895Z,100137.09
2022-09-26T06:43:47.870Z,100137.29
2022-09-26T06:46:16.231Z,100134.47
2022-09-26T06:48:43.967Z,100135.21
2022-09-26T06:51:13.678Z,100134.34
2022-09-26T06:53:41.011Z,100126.60
2022-09-26T06:56:08.143Z,100125.18
2022-09-26T06:58:34.778Z,100123.95
2022-09-26T07:01:02.830Z,100122.20
2022-09-26T07:03:30.072Z,100119.73
2022-09-26T07:05:57.957Z,100116.73
2022-09-26T07:08:50.159Z,100115.30
2022-09-26T07:11:35.060Z,100113.20
2022-09-26T07:14:04.552Z,100112.45
2022-09-26T07:16:31.468Z,100110.36
2022-09-26T07:18:58.174Z,100112.65
2022-09-26T07:21:24.935Z,100108.31
2022-09-26T07:23:56.228Z,100108.01
2022-09-26T07:26:22.897Z,100112.41
2022-09-26T07:28:54.273Z,100111.56
2022-09-26T07:31:23.513Z,100107.06
2022-09-26T07:33:50.285Z,100103.77
2022-09-26T07:36:18.451Z,100104.48
2022-09-26T07:38:48.577Z,100104.39
2022-09-26T07:41:16.185Z,100097.92
2022-09-26T07:44:34.576Z,100098.64
2022-09-26T07:46:49.095Z,100098.70
2022-09-26T07:49:34.476Z,100096.13
2022-09-26T07:52:01.432Z,100095.75
2022-09-26T07:54:28.219Z,100088.81
2022-09-26T07:56:55.164Z,100085.63
2022-09-26T07:59:22.911Z,100096.32
2022-09-26T08:01:49.771Z,100085.70
2022-09-26T08:04:18.666Z,100083.02
2022-09-26T08:06:45.812Z,100086.70
2022-09-26T08:09:13.146Z,100089.02
2022-09-26T08:11:41.970Z,100088.72
2022-09-26T08:14:08.959Z,100091.22
2022-09-26T08:16:39.510Z,100089.17
2022-09-26T08:19:07.927Z,100089.70
2022-09-26T08:21:35.612Z,100082.67
2022-09-26T08:24:02.358Z,100089.48
2022-09-26T08:26:29.138Z,100084.11
2022-09-26T08:28:55.749Z,100083.42
2022-09-26T08:31:22.782Z,100085.46
2022-09-26T08:33:49.511Z,100082.71
2022-09-26T08:36:16.871Z,100076.20
2022-09-26T08:38:43.696Z,100074.71
2022-09-26T08:42:01.919Z,100079.21
2022-09-26T08:44:58.209Z,100073.75
2022-09-26T08:47:49.927Z,100075.23
2022-09-26T08:50:25.844Z,100069.73
2022-09-26T08:53:08.748Z,100070.64
2022-09-26T08:55:44.421Z,100066.04
2022-09-26T08:58:29.145Z,100062.40
2022-09-26T09:01:02.778Z,100055.09
2022-09-26T09:03:32.126Z,100053.81
2022-09-26T09:06:08.367Z,100050.36
2022-09-26T09:08:40.673Z,100047.63
2022-09-26T09:11:51.253Z,100047.25
2022-09-26T09:15:24.135Z,100046.36
2022-09-26T09:18:14.056Z,100041.79
2022-09-26T09:21:30.135Z,100038.50
2022-09-26T09:24:28.419Z,100028.90
2022-09-26T09:30:45.522Z,100020.34
2022-09-26T09:33:19.524Z,100025.40
2022-09-26T09:35:53.743Z,100019.13
2022-09-26T09:38:28.519Z,100021.98
2022-09-26T09:41:08.834Z,100021.52
2022-09-26T09:43:48.286Z,100016.32
2022-09-26T09:46:50.800Z,100002.81
2022-09-26T09:49:22.864Z,100004.67
2022-09-26T09:52:13.645Z,99999.59
2022-09-26T09:55:13.143Z,99994.94
2022-09-26T09:58:17.480Z,99988.56
2022-09-26T10:01:08.533Z,99992.95
2022-09-26T10:04:39.534Z,99985.27
2022-09-26T10:07:06.305Z,99982.95
2022-09-26T10:09:41.194Z,99975.91
2022-09-26T10:12:20.325Z,99972.21
2022-09-26T10:14:55.790Z,99973.90
2022-09-26T10:17:24.178Z,99968.94
2022-09-26T10:19:51.562Z,99972.34
2022-09-26T10:22:37.423Z,99966.95
2022-09-26T10:25:17.472Z,99959.52
2022-09-26T10:27:53.066Z,99950.55
2022-09-26T10:30:19.763Z,99948.34
2022-09-26T10:32:56.412Z,99953.11
2022-09-26T10:35:46.033Z,99945.58
2022-09-26T10:38:27.456Z,99948.30
2022-09-26T10:41:03.575Z,99944.58
2022-09-26T10:43:36.173Z,99940.48
2022-09-26T10:46:23.518Z,99930.87
2022-09-26T10:48:56.244Z,99934.84
2022-09-26T10:51:36.255Z,99930.48
2022-09-26T10:54:14.998Z,99931.07
2022-09-26T10:56:59.140Z,99927.13
2022-09-26T10:59:32.269Z,99916.35
2022-09-26T11:02:02.509Z,99911.92
2022-09-26T11:04:52.606Z,99914.20
2022-09-26T11:07:35.853Z,99916.60
2022-09-26T11:10:11.191Z,99911.45
2022-09-26T11:12:41.426Z,99912.44
2022-09-26T11:15:14.491Z,99909.64
2022-09-26T11:17:53.783Z,99912.59
2022-09-26T11:20:29.324Z,99902.70
2022-09-26T11:23:29.630Z,99901.63
2022-09-26T11:29:08.271Z,99906.11
2022-09-26T11:34:31.437Z,99911.40
2022-09-26T11:41:07.321Z,99895.82
2022-09-26T11:44:08.988Z,99890.52
2022-09-26T11:47:36.947Z,99888.80
2022-09-26T11:50:55.013Z,99887.42
2022-09-26T11:54:00.919Z,99880.94
2022-09-26T11:56:52.601Z,99880.69
2022-09-26T11:59:53.980Z,99874.23
2022-09-26T12:02:47.279Z,99873.15
2022-09-26T12:05:31.941Z,99869.75
2022-09-26T12:08:40.544Z,99867.17
2022-09-26T12:11:37.267Z,99856.85
2022-09-26T12:14:29.552Z,99846.48
2022-09-26T12:17:19.552Z,99832.19
2022-09-26T12:20:07.804Z,99832.40
2022-09-26T12:22:50.870Z,99825.81
2022-09-26T12:25:47.985Z,99832.17
2022-09-26T12:28:43.946Z,99832.55
2022-09-26T12:31:25.686Z,99833.66
2022-09-26T12:34:55.274Z,99835.88
2022-09-26T12:38:22.280Z,99834.65
2022-09-26T12:41:35.952Z,99831.50
2022-09-26T12:44:32.500Z,99827.18
2022-09-26T12:47:43.401Z,99823.16
2022-09-26T12:50:31.074Z,99816.21
2022-09-26T12:53:18.153Z,99805.91
2022-09-26T12:56:15.375Z,99800.09
2022-09-26T12:59:12.749Z,99793.20
2022-09-26T13:01:51.386Z,99796.39
2022-09-26T13:04:43.563Z,99797.59
2022-09-26T13:07:46.894Z,99797.83
2022-09-26T13:10:40.921Z,99796.05
2022-09-26T13:13:46.373Z,99794.12
2022-09-26T13:16:28.013Z,99788.98
2022-09-26T13:19:03.365Z,99790.59
2022-09-26T13:21:54.217Z,99784.36
2022-09-26T13:24:31.868Z,99782.80
2022-09-26T13:27:17.608Z,99780.35
2022-09-26T13:29:53.647Z,99780.45
2022-09-26T13:32:35.253Z,99775.50
2022-09-26T13:35:23.907Z,99777.58
2022-09-26T13:38:15.500Z,99770.38
2022-09-26T13:41:00.701Z,99769.58
2022-09-26T13:43:51.940Z,99763.91
2022-09-26T13:46:59.806Z,99758.39
2022-09-26T13:50:03.252Z,99753.25
2022-09-26T13:52:42.296Z,99749.65
2022-09-26T13:55:21.770Z,99745.15
2022-09-26T13:58:01.384Z,99738.77
2022-09-26T14:00:31.194Z,99736.27
2022-09-26T14:03:13.691Z,99733.23
2022-09-26T14:05:52.591Z,99731.35
2022-09-26T14:08:44.166Z,99724.75
2022-09-26T14:11:30.495Z,99722.13
2022-09-26T14:14:19.026Z,99719.80
2022-09-26T14:16:52.109Z,99715.38
2022-09-26T14:19:49.622Z,99709.38
2022-09-26T14:22:20.708Z,99710.66
2022-09-26T14:24:49.676Z,99704.36
2022-09-26T14:27:16.845Z,99705.73
2022-09-26T14:29:52.939Z,99704.76
2022-09-26T14:32:39.715Z,99704.04
2022-09-26T14:35:25.410Z,99704.95
2022-09-26T14:38:00.751Z,99702.86
2022-09-26T14:40:31.326Z,99695.98
2022-09-26T14:43:16.669Z,99689.60
2022-09-26T14:45:49.904Z,99687.17
2022-09-26T14:48:20.353Z,99687.69
2022-09-26T14:51:19.699Z,99686.80
2022-09-26T14:54:22.423Z,99685.21
2022-09-26T14:57:00.941Z,99684.91
2022-09-26T14:59:46.210Z,99682.73
2022-09-26T15:02:38.626Z,99677.61
2022-09-26T15:05:08.506Z,99675.14
2022-09-26T15:07:47.024Z,99676.05
2022-09-26T15:10:13.853Z,99674.96
2022-09-26T15:12:54.319Z,99672.66
2022-09-26T15:15:58.450Z,99669.29
2022-09-26T15:18:28.029Z,99665.34
2022-09-26T15:21:18.955Z,99665.92
2022-09-26T15:23:51.313Z,99661.23
2022-09-26T15:26:23.643Z,99663.08
2022-09-26T15:28:54.373Z,99656.90
2022-09-26T15:31:43.725Z,99660.11
2022-09-26T15:34:47.465Z,99658.73
2022-09-26T15:37:27.518Z,99658.70
2022-09-26T15:39:54.277Z,99656.62
2022-09-26T15:42:57.806Z,99650.83
2022-09-26T15:45:33.578Z,99651.02
2022-09-26T15:48:03.882Z,99644.73
2022-09-26T15:50:40.245Z,99642.98
2022-09-26T15:53:56.288Z,99641.51
2022-09-26T15:56:42.844Z,99637.44
2022-09-26T15:59:39.991Z,99635.36
2022-09-26T16:02:24.432Z,99637.42
2022-09-26T16:04:54.809Z,99635.69
2022-09-26T16:07:30.944Z,99636.52
2022-09-26T16:19:57.400Z,99627.19
2022-09-26T16:22:27.058Z,99625.82
2022-09-26T16:24:53.973Z,99626.31
2022-09-26T16:27:26.749Z,99624.94
2022-09-26T16:29:53.561Z,99620.67
2022-09-26T16:32:22.887Z,99616.05
2022-09-26T16:34:50.154Z,99617.57
2022-09-26T16:37:20.306Z,99620.01
2022-09-26T16:40:00.759Z,99616.89
2022-09-26T16:42:33.410Z,99611.14
2022-09-26T16:45:05.435Z,99611.22
2022-09-26T16:47:44.414Z,99607.52
2022-09-26T16:50:33.581Z,99610.27
2022-09-26T16:53:06.227Z,99610.88
2022-09-26T16:55:36.316Z,99610.49
2022-09-26T16:58:05.881Z,99611.58
2022-09-26T17:00:54.192Z,99614.54
2022-09-26T17:03:29.376Z,99615.36
2022-09-26T17:05:59.182Z,99607.45
2022-09-26T17:08:28.640Z,99603.74
2022-09-26T17:11:01.864Z,99601.09
2022-09-26T17:13:33.856Z,99600.64
2022-09-26T17:20:46.278Z,99600.05
2022-09-26T17:23:35.332Z,99599.48
2022-09-26T17:26:01.047Z,99598.82
2022-09-26T17:28:40.653Z,99601.36
2022-09-26T17:31:19.147Z,99598.57
2022-09-26T17:33:52.415Z,99596.26
2022-09-26T17:36:27.964Z,99593.23
2022-09-26T17:38:59.212Z,99591.46
2022-09-26T17:41:27.942Z,99590.82
2022-09-26T17:44:00.983Z,99586.42
2022-09-26T17:46:28.911Z,99586.13
2022-09-26T17:48:56.373Z,99588.01
2022-09-26T17:51:24.175Z,99586.27
2022-09-26T17:53:52.588Z,99588.42
2022-09-26T17:56:20.443Z,99586.00
2022-09-26T17:58:49.867Z,99585.48
2022-09-26T18:01:26.503Z,99583.77
2022-09-26T18:04:02.382Z,99581.13
2022-09-26T18:06:32.807Z,99580.09
2022-09-26T18:09:07.554Z,99577.59
2022-09-26T18:11:37.246Z,99576.52
2022-09-26T18:14:08.006Z,99574.60
2022-09-26T18:16:35.334Z,99571.54
2022-09-26T18:19:06.218Z,99567.30
2022-09-26T18:21:34.229Z,99569.75
2022-09-26T18:24:06.571Z,99564.69
2022-09-26T18:26:47.264Z,99572.06
2022-09-26T18:29:22.721Z,99570.95
2022-09-26T18:31:49.672Z,99569.71
2022-09-26T18:34:19.795Z,99570.52
2022-09-26T18:36:51.616Z,99570.83
2022-09-26T18:39:18.671Z,99565.34
2022-09-26T18:41:46.001Z,99564.55
2022-09-26T18:44:18.186Z,99564.90
2022-09-26T18:46:47.067Z,99565.11
2022-09-26T18:49:15.494Z,99561.91
2022-09-26T18:51:42.325Z,99559.53
2022-09-26T18:54:15.393Z,99561.13
2022-09-26T18:57:01.208Z,99557.92
2022-09-26T18:59:31.206Z,99560.49
2022-09-26T19:02:01.395Z,99557.86
2022-09-26T19:04:30.736Z,99557.05
2022-09-26T19:07:01.609Z,99557.99
2022-09-26T19:09:33.774Z,99555.92
2022-09-26T19:12:03.111Z,99555.52
2022-09-26T19:14:31.579Z,99550.05
2022-09-26T19:16:59.133Z,99546.60
2022-09-26T19:19:28.545Z,99544.50
2022-09-26T19:21:59.475Z,99542.89
2022-09-26T19:24:49.975Z,99540.48
2022-09-26T19:27:52.013Z,99536.17
2022-09-26T19:30:21.742Z,99532.39
2022-09-26T19:32:54.214Z,99532.77
2022-09-26T19:35:30.444Z,99531.33
2022-09-26T19:37:59.131Z,99527.96
2022-09-26T19:40:27.875Z,99529.36
2022-09-26T19:42:57.201Z,99527.30
2022-09-26T19:45:26.060Z,99525.23
2022-09-26T19:47:56.137Z,99522.29
2022-09-26T19:50:28.720Z,99519.16
2022-09-26T19:53:00.399Z,99522.33
2022-09-26T19:55:30.646Z,99519.90
2022-09-26T19:58:07.852Z,99517.51
2022-09-26T20:00:41.230Z,99515.54
2022-09-26T20:03:17.926Z,99516.06
2022-09-26T20:05:49.798Z,99518.05
2022-09-26T20:08:23.426Z,99517.36
2022-09-26T20:10:51.565Z,99514.70
2022-09-26T20:13:19.146Z,99512.96
2022-09-26T20:15:46.836Z,99509.45
2022-09-26T20:18:21.313Z,99503.45
2022-09-26T20:20:54.525Z,99499.71
2022-09-26T20:23:25.936Z,99497.83
2022-09-26T20:25:54.894Z,99497.85
2022-09-26T20:28:21.827Z,99496.77
2022-09-26T20:30:51.335Z,99488.83
2022-09-26T20:33:22.044Z,99490.61
2022-09-26T20:36:02.977Z,99490.08
2022-09-26T20:38:58.780Z,99486.39
2022-09-26T20:41:31.383Z,99484.47
2022-09-26T20:44:25.083Z,99478.71
2022-09-26T20:47:01.473Z,99473.04
2022-09-26T20:49:43.712Z,99474.44
2022-09-26T20:52:30.659Z,99473.86
2022-09-26T20:54:58.311Z,99467.86
2022-09-26T20:57:25.486Z,99467.09
2022-09-26T20:59:52.361Z,99462.50
2022-09-26T21:02:36.733Z,99460.33
2022-09-26T21:05:14.594Z,99456.55
2022-09-26T21:07:41.561Z,99452.94
2022-09-26T21:10:29.061Z,99450.44
2022-09-26T21:12:57.577Z,99454.26
2022-09-26T21:15:31.422Z,99451.23
2022-09-26T21:17:59.830Z,99447.59
2022-09-26T21:20:31.124Z,99443.42
2022-09-26T21:23:01.286Z,99444.89
2022-09-26T21:25:32.440Z,99447.08
2022-09-26T21:28:15.578Z,99445.79
2022-09-26T21:30:43.605Z,99443.78
2022-09-26T21:33:14.123Z,99443.11
2022-09-26T21:35:42.518Z,99445.63
2022-09-26T21:38:09.399Z,99439.31
2022-09-26T21:40:42.840Z,99436.21
2022-09-26T21:43:18.046Z,99432.02
2022-09-26T21:45:46.441Z,99427.97
2022-09-26T21:48:15.334Z,99421.68
2022-09-26T21:50:52.887Z,99423.64
2022-09-26T21:53:37.569Z,99414.02
2022-09-26T21:56:14.325Z,99411.36
2022-09-26T21:58:43.247Z,99405.36
2022-09-26T22:01:10.007Z,99405.86
2022-09-26T22:03:37.216Z,99403.41
2022-09-26T22:06:09.388Z,99397.97
2022-09-26T22:08:40.297Z,99394.46
2022-09-26T22:11:09.081Z,99393.98
2022-09-26T22:13:37.671Z,99389.38
2022-09-26T22:16:11.254Z,99385.02
2022-09-26T22:18:40.070Z,99377.95
2022-09-26T22:21:09.346Z,99373.17
2022-09-26T22:23:37.349Z,99366.95
2022-09-26T22:26:05.066Z,99365.60
2022-09-26T22:28:31.914Z,99363.83
2022-09-26T22:31:05.358Z,99362.23
2022-09-26T22:33:33.217Z,99354.85
2022-09-26T22:36:00.886Z,99349.76
2022-09-26T22:38:27.549Z,99347.82
2022-09-26T22:41:03.841Z,99339.72
2022-09-26T22:43:33.063Z,99336.04
2022-09-26T22:46:11.555Z,99333.20
2022-09-26T22:48:46.056Z,99338.48
2022-09-26T22:51:15.522Z,99338.02
2022-09-26T22:53:44.000Z,99334.84
2022-09-26T22:56:14.861Z,99332.55
2022-09-26T22:58:52.484Z,99325.19
2022-09-26T23:01:27.481Z,99324.69
2022-09-26T23:03:56.594Z,99324.17
2022-09-26T23:06:24.325Z,99319.25
2022-09-26T23:08:51.907Z,99311.43
2022-09-26T23:11:20.115Z,99306.58
2022-09-26T23:13:52.600Z,99302.77
2022-09-26T23:16:23.761Z,99297.98
2022-09-26T23:18:51.746Z,99288.93
2022-09-26T23:21:24.712Z,99287.73
2022-09-26T23:23:55.601Z,99285.27
2022-09-26T23:26:27.277Z,99278.80
2022-09-26T23:28:57.762Z,99278.81
2022-09-26T23:31:26.983Z,99276.35
2022-09-26T23:33:54.833Z,99274.59
2022-09-26T23:36:22.331Z,99270.36
2022-09-26T23:38:50.072Z,99266.53
2022-09-26T23:41:17.959Z,99260.61
2022-09-26T23:43:46.380Z,99260.34
2022-09-26T23:46:14.215Z,99255.77
2022-09-26T23:48:41.659Z,99258.40
2022-09-26T23:51:09.089Z,99257.73
2022-09-26T23:53:35.779Z,99255.30
2022-09-26T23:56:09.631Z,99252.86
2022-09-26T23:58:37.457Z,99249.99
